Terminal Aerodrome Forecast
Issued by NWS

Home | Current Version | Previous Version | Text Only | Print | Product List | Glossary On
Versions: 1 2 3 4 5 6 7 8 9 10 11 12 13 14 15 16 17 18
894
FTUS42 KMLB 032017 AAA
TAFLEE
TAF AMD
KLEE 032017Z 0320/0418 28012G17KT P6SM VCSH FEW045 BKN250
     FM040000 26006KT P6SM SCT040 BKN250
     FM040900 22004KT P6SM SCT010 BKN050
     FM041400 27008KT P6SM VCSH SCT020 BKN040=

USA.gov is the U.S. government's official web portal to all federal, state and local government web resources and services.